KRDD

Redding Municipal Airport

Redding, California, USA
METAR KRDD 242153Z 34007G16KT 10SM CLR 34/M08 A2980 RMK AO2 SLP086 T03441083
Observed Flight Rules
Sep-24 @ 21:53 UTC (8 minutes ago) Visual Flight Rules
Wind Visibility Clouds
340° at 7 knots
 Gusting to 16 knots
10 miles
  • Clear skies
Temperatures Readings
Current 34°C / 93°F
Dewpoint -8°C / 18°F
Humidity 6%
Altimeter 29.8" Hg
Pressure 1008.6 hPa
Elevation 155
METAR KRDD 242153Z 34007G16KT 10SM CLR 34/M08 A2980 RMK AO2 SLP086 T03441083
Observed Flight Rules
Sep-24 @ 21:53 UTC
(8 minutes ago)
VFR
Wind Visibility
340° at 7 knots
 Gusting to 16 knots
10 miles
Clouds
  • Clear skies
Temperature Dewpoint
34°C / 93°F -8°C / 18°F
Humidity Altimeter Pressure
6% 29.8" Hg 1008.6 hPa